Anderson, MO (64831)

11:21 AM CDT on April 26, 2017 (GMT -0500)
Brush Creek | | Change Station

Elev 1056 ft 36.51 °N, 94.34 °W | Updated 9 seconds ago

Rain
Rain
50.0 °F
Feels Like 49 °F
N
4.3
Wind Variable Wind from WNW
Gusts 4.9 mph

Today
High -- | Low -- °F
--% Chance of Precip.
Yesterday
High -- | Low -- °F
Precip. -- in
Pressure 29.61 in
Visibility 10.0 miles
Clouds Scattered Clouds 800 ft
Overcast 1200 ft
Windchill 49 °F
Dew Point 49 °F
Humidity 96%
Rainfall 1.02 in
Snow Depth Not available.
6:29 AM 8:02 PM
New Moon, 0% visible
METAR KGMJ 261555Z AUTO 32007KT 10SM RA SCT008 OVC012 10/09 A2961 RMK AO2 LTG DSNT NE THRU SE P0009
Pressure 29.61 in
Visibility 10.0 miles
Clouds Scattered Clouds 800 ft
Overcast 1200 ft
Windchill 49 °F
Dew Point 49 °F
Humidity 96%
Rainfall 1.02 in
Snow Depth Not available.
6:29 AM 8:02 PM
New Moon, 0% visible
METAR KGMJ 261555Z AUTO 32007KT 10SM RA SCT008 OVC012 10/09 A2961 RMK AO2 LTG DSNT NE THRU SE P0009

Get Severe Weather Alerts

Thanks for signing up!

Be on the lookout for a verification email in your inbox.

You'll start receiving the daily forecast at 8 AM.

×

10-Day Weather Forecast

Almanac

Astronomy

Apr. 26, 2017 Rise Set
Actual Time
Civil Twilight
Nautical Twilight
Astronomical Twilight
Moon
Length of Visible Light
Length of Day
Tomorrow will be .
, % of the Moon is Illuminated

Today's Extremes

State Highs State Lows

Community

WunderPhotos

WunderBlog® & News

Nearby

Air Quality

  Air Quality AQ Index Pollutant
Not available.

Snow Depth

Station Depth Elevation

Earthquake Activity

City Distance Mag. Time & Date
Minimum magnitude displayed is 2.5.

Coastal Water Temperatures

Place Temperature

Stations

Nearby Weather Stations

Station Location Temp. Windchill Dew Point Humidity Wind Precip. Elev Updated Type
                   

Watches & Warnings

There are currently no watches in effect.